createdAt,value
2019-02-07T00:01:05.977Z,22.57
2019-02-07T00:03:35.287Z,23.23
2019-02-07T00:06:05.019Z,22.73
2019-02-07T00:08:34.235Z,22.70
2019-02-07T00:11:03.428Z,21.50
2019-02-07T00:13:32.637Z,23.07
2019-02-07T00:16:01.894Z,23.13
2019-02-07T00:18:31.087Z,21.33
2019-02-07T00:21:00.760Z,22.33
2019-02-07T00:23:30.033Z,23.13
2019-02-07T00:25:59.327Z,23.23
2019-02-07T00:28:28.685Z,21.23
2019-02-07T00:30:57.872Z,21.80
2019-02-07T00:33:27.096Z,21.07
2019-02-07T00:35:56.680Z,21.47
2019-02-07T00:38:25.966Z,21.03
2019-02-07T00:40:55.228Z,20.90
2019-02-07T00:43:24.513Z,20.80
2019-02-07T00:45:53.774Z,20.87
2019-02-07T00:48:23.079Z,22.17
2019-02-07T00:50:52.533Z,21.47
2019-02-07T00:53:21.831Z,21.37
2019-02-07T00:55:51.108Z,21.30
2019-02-07T00:58:20.464Z,21.23
2019-02-07T01:00:50.045Z,21.67
2019-02-07T01:03:19.524Z,21.37
2019-02-07T01:05:48.753Z,22.13
2019-02-07T01:08:18.130Z,21.50
2019-02-07T01:10:47.512Z,22.53
2019-02-07T01:13:16.772Z,21.80
2019-02-07T01:15:46.056Z,21.30
2019-02-07T01:18:15.308Z,22.30
2019-02-07T01:20:44.597Z,22.70
2019-02-07T01:23:13.852Z,21.83
2019-02-07T01:25:43.058Z,22.07
2019-02-07T01:28:12.329Z,22.53
2019-02-07T01:30:41.627Z,22.90
2019-02-07T01:33:10.825Z,21.70
2019-02-07T01:35:40.109Z,20.07
2019-02-07T01:38:09.521Z,20.90
2019-02-07T01:40:38.794Z,20.73
2019-02-07T01:43:08.143Z,21.60
2019-02-07T01:45:37.397Z,20.90
2019-02-07T01:48:06.580Z,22.77
2019-02-07T01:50:36.036Z,22.43
2019-02-07T01:53:05.364Z,23.60
2019-02-07T01:55:34.547Z,23.13
2019-02-07T01:58:03.836Z,22.17
2019-02-07T02:00:33.020Z,23.90
2019-02-07T02:03:02.316Z,23.03
2019-02-07T02:05:31.896Z,22.43
2019-02-07T02:08:01.192Z,23.50
2019-02-07T02:10:30.676Z,23.87
2019-02-07T02:12:59.952Z,24.53
2019-02-07T02:15:29.174Z,25.23
2019-02-07T02:17:58.621Z,24.27
2019-02-07T02:20:28.293Z,22.13
2019-02-07T02:22:57.560Z,22.30
2019-02-07T02:25:26.764Z,19.97
2019-02-07T02:27:55.957Z,19.63
2019-02-07T02:30:35.468Z,20.63
2019-02-07T02:33:05.059Z,20.30
2019-02-07T02:35:34.414Z,22.23
2019-02-07T02:38:03.676Z,22.27
2019-02-07T02:40:32.894Z,22.23
2019-02-07T02:43:02.149Z,21.87
2019-02-07T02:45:37.443Z,20.73
2019-02-07T02:48:02.356Z,21.10
2019-02-07T02:50:31.649Z,21.60
2019-02-07T02:53:00.855Z,20.90
2019-02-07T02:55:34.993Z,22.20
2019-02-07T02:58:05.482Z,23.50
2019-02-07T03:00:50.280Z,21.73
2019-02-07T03:03:28.673Z,22.57
2019-02-07T03:06:08.761Z,22.93
2019-02-07T03:08:49.519Z,22.73
2019-02-07T03:11:36.027Z,22.23
2019-02-07T03:14:17.389Z,22.00
2019-02-07T03:17:05.635Z,24.03
2019-02-07T03:19:54.497Z,21.23
2019-02-07T03:22:35.496Z,22.03
2019-02-07T03:25:38.559Z,22.77
2019-02-07T03:28:32.625Z,20.50
2019-02-07T03:31:19.859Z,22.57
2019-02-07T03:34:20.293Z,22.30
2019-02-07T03:37:11.835Z,20.90
2019-02-07T03:40:03.669Z,22.23
2019-02-07T03:42:58.340Z,23.37
2019-02-07T03:45:45.709Z,21.73
2019-02-07T03:48:27.888Z,20.90
2019-02-07T03:51:14.983Z,21.63
2019-02-07T03:54:15.595Z,20.53
2019-02-07T03:57:09.992Z,19.83
2019-02-07T03:59:55.592Z,20.77
2019-02-07T04:02:42.714Z,20.83
2019-02-07T04:05:29.854Z,19.90
2019-02-07T04:08:18.079Z,19.67
2019-02-07T04:11:05.436Z,19.50
2019-02-07T04:13:54.695Z,18.37
2019-02-07T04:16:51.828Z,19.37
2019-02-07T04:19:40.181Z,17.83
2019-02-07T04:22:38.191Z,17.23
2019-02-07T04:25:32.357Z,16.30
2019-02-07T04:28:12.403Z,17.03
2019-02-07T04:30:48.833Z,16.30
2019-02-07T04:33:36.036Z,17.27
2019-02-07T04:36:17.568Z,16.87
2019-02-07T04:39:09.536Z,15.53
2019-02-07T04:41:56.759Z,16.47
2019-02-07T04:44:46.720Z,15.40
2019-02-07T04:47:34.937Z,16.17
2019-02-07T04:50:23.700Z,15.63
2019-02-07T04:53:14.956Z,15.53
2019-02-07T04:56:02.060Z,15.00
2019-02-07T04:58:53.040Z,15.33
2019-02-07T05:01:31.414Z,14.63
2019-02-07T05:04:15.422Z,14.90
2019-02-07T05:06:55.680Z,14.60
2019-02-07T05:09:49.784Z,13.77
2019-02-07T05:12:50.064Z,14.97
2019-02-07T05:15:31.696Z,13.47
2019-02-07T05:18:23.202Z,14.40
2019-02-07T05:21:17.568Z,15.53
2019-02-07T05:24:03.472Z,14.77
2019-02-07T05:26:49.268Z,15.30
2019-02-07T05:29:36.529Z,14.67
2019-02-07T05:32:30.754Z,15.87
2019-02-07T05:35:17.896Z,15.43
2019-02-07T05:38:08.706Z,15.77
2019-02-07T05:40:52.736Z,16.67
2019-02-07T05:43:44.176Z,15.47
2019-02-07T05:46:51.020Z,15.83
2019-02-07T05:49:40.805Z,16.80
2019-02-07T05:52:30.200Z,18.20
2019-02-07T05:55:17.096Z,17.20
2019-02-07T05:58:05.334Z,18.70
2019-02-07T06:00:50.113Z,17.87
2019-02-07T06:03:56.469Z,17.30
2019-02-07T06:06:43.409Z,17.47
2019-02-07T06:09:29.736Z,17.00
2019-02-07T06:12:20.901Z,17.83
2019-02-07T06:15:09.245Z,17.83
2019-02-07T06:18:03.501Z,17.80
2019-02-07T06:20:46.991Z,17.80
2019-02-07T06:23:33.845Z,18.37
2019-02-07T06:26:17.931Z,17.63
2019-02-07T06:29:05.021Z,18.50
2019-02-07T06:31:48.815Z,18.23
2019-02-07T06:34:37.157Z,17.67
2019-02-07T06:37:13.317Z,16.77
2019-02-07T06:39:57.570Z,18.30
2019-02-07T06:42:43.985Z,18.13
2019-02-07T06:45:30.607Z,16.87
2019-02-07T06:48:09.915Z,17.23
2019-02-07T06:50:50.278Z,18.37
2019-02-07T06:53:37.599Z,18.70
2019-02-07T06:56:24.725Z,18.97
2019-02-07T06:59:18.994Z,18.80
2019-02-07T07:02:16.171Z,19.10
2019-02-07T07:04:50.868Z,18.20
2019-02-07T07:07:38.133Z,17.70
2019-02-07T07:10:27.803Z,17.70
2019-02-07T07:13:14.843Z,18.80
2019-02-07T07:15:58.727Z,17.83
2019-02-07T07:18:55.916Z,19.90
2019-02-07T07:21:56.510Z,24.10
2019-02-07T07:24:43.612Z,19.07
2019-02-07T07:27:38.043Z,18.83
2019-02-07T07:30:18.589Z,19.80
2019-02-07T07:32:58.055Z,19.80
2019-02-07T07:35:45.212Z,19.83
2019-02-07T07:38:32.188Z,19.57
2019-02-07T07:41:38.763Z,20.77
2019-02-07T07:44:35.404Z,21.93
2019-02-07T07:47:22.826Z,20.57
2019-02-07T07:50:23.208Z,21.73
2019-02-07T07:53:02.592Z,21.07
2019-02-07T07:55:57.344Z,22.50
2019-02-07T07:58:44.203Z,24.47
2019-02-07T08:01:32.428Z,20.17
2019-02-07T08:04:31.344Z,20.07
2019-02-07T08:07:32.292Z,19.87
2019-02-07T08:10:23.377Z,22.63
2019-02-07T08:13:01.492Z,21.20
2019-02-07T08:15:38.032Z,22.57
2019-02-07T08:18:29.516Z,23.83
2019-02-07T08:21:16.745Z,19.93
2019-02-07T08:24:14.384Z,21.00
2019-02-07T08:27:01.788Z,20.90
2019-02-07T08:29:48.725Z,47.27
2019-02-07T08:32:36.001Z,20.77
2019-02-07T08:35:30.800Z,20.13
2019-02-07T08:38:22.169Z,21.43
2019-02-07T08:41:16.252Z,21.63
2019-02-07T08:44:03.732Z,22.50
2019-02-07T08:47:09.945Z,23.20
2019-02-07T08:49:56.825Z,20.73
2019-02-07T08:52:43.913Z,21.50
2019-02-07T08:55:34.927Z,23.47
2019-02-07T08:58:24.337Z,22.67
2019-02-07T09:01:30.929Z,21.53
2019-02-07T09:04:17.208Z,21.83
2019-02-07T09:07:11.628Z,21.87
2019-02-07T09:09:48.436Z,22.27
2019-02-07T09:12:45.625Z,23.57
2019-02-07T09:15:23.353Z,21.77
2019-02-07T09:18:36.995Z,21.30
2019-02-07T09:21:38.240Z,21.67
2019-02-07T09:24:29.545Z,21.67
2019-02-07T09:27:15.037Z,23.33
2019-02-07T09:30:09.417Z,22.93
2019-02-07T09:33:10.354Z,22.40
2019-02-07T09:36:05.046Z,22.40
2019-02-07T09:38:45.690Z,20.03
2019-02-07T09:41:56.073Z,20.50
2019-02-07T09:44:43.129Z,21.70
2019-02-07T09:47:20.515Z,22.00
2019-02-07T09:50:08.803Z,22.37
2019-02-07T09:53:06.004Z,20.87
2019-02-07T09:55:43.794Z,21.30
2019-02-07T09:58:30.417Z,21.50
2019-02-07T10:01:25.297Z,21.27
2019-02-07T10:04:31.761Z,21.10
2019-02-07T10:07:25.957Z,21.67
2019-02-07T10:10:13.049Z,19.87
2019-02-07T10:12:59.916Z,19.73
2019-02-07T10:15:46.791Z,20.23
2019-02-07T10:18:33.203Z,22.40
2019-02-07T10:21:25.953Z,22.63
2019-02-07T10:24:17.235Z,20.37
2019-02-07T10:27:05.572Z,19.80
2019-02-07T10:30:05.041Z,19.83
2019-02-07T10:33:00.029Z,18.97
2019-02-07T10:35:54.513Z,19.10
2019-02-07T10:38:42.036Z,19.10
2019-02-07T10:41:21.184Z,18.40
2019-02-07T10:44:07.982Z,18.83
2019-02-07T10:47:05.146Z,19.53
2019-02-07T10:49:59.424Z,18.50
2019-02-07T10:53:08.383Z,18.77
2019-02-07T10:55:55.309Z,23.80
2019-02-07T10:58:52.864Z,18.20
2019-02-07T11:01:44.396Z,17.43
2019-02-07T11:04:38.606Z,17.43
2019-02-07T11:07:31.097Z,18.23
2019-02-07T11:10:25.427Z,18.60
2019-02-07T11:13:14.024Z,17.50
2019-02-07T11:16:01.885Z,17.53
2019-02-07T11:19:02.445Z,18.53
2019-02-07T11:21:51.188Z,18.83
2019-02-07T11:24:57.135Z,17.27
2019-02-07T11:27:47.637Z,17.97
2019-02-07T11:31:02.897Z,18.27
2019-02-07T11:33:42.249Z,17.67
2019-02-07T11:36:39.597Z,17.93
2019-02-07T11:39:35.350Z,17.57
2019-02-07T11:42:30.030Z,17.70
2019-02-07T11:45:33.927Z,16.90
2019-02-07T11:48:30.898Z,18.27
2019-02-07T11:51:12.376Z,17.23
2019-02-07T11:53:55.197Z,18.20
2019-02-07T11:56:56.994Z,19.00
2019-02-07T11:59:45.285Z,17.67
2019-02-07T12:02:32.705Z,18.57
2019-02-07T12:05:17.256Z,18.50
2019-02-07T12:08:04.671Z,18.00
2019-02-07T12:10:53.655Z,19.50
2019-02-07T12:13:41.877Z,20.27
2019-02-07T12:16:22.257Z,19.23
2019-02-07T12:19:18.159Z,19.27
2019-02-07T12:22:15.725Z,20.73
2019-02-07T12:24:57.669Z,20.13
2019-02-07T12:27:37.237Z,21.47
2019-02-07T12:30:51.469Z,20.70
2019-02-07T12:33:36.444Z,20.50
2019-02-07T12:36:49.947Z,21.73
2019-02-07T12:39:41.741Z,20.93
2019-02-07T12:42:32.783Z,20.43
2019-02-07T12:45:39.203Z,21.33
2019-02-07T12:48:44.020Z,19.30
2019-02-07T12:51:42.749Z,21.07
2019-02-07T12:54:34.101Z,20.97
2019-02-07T12:57:22.528Z,21.73
2019-02-07T13:00:12.908Z,20.27
2019-02-07T13:03:07.764Z,20.70
2019-02-07T13:06:05.509Z,19.83
2019-02-07T13:08:59.093Z,19.53
2019-02-07T13:11:56.351Z,19.43
2019-02-07T13:14:37.246Z,20.70
2019-02-07T13:17:21.598Z,20.70
2019-02-07T13:20:13.121Z,21.03
2019-02-07T13:22:58.824Z,20.07
2019-02-07T13:25:45.766Z,19.13
2019-02-07T13:28:46.299Z,20.30
2019-02-07T13:31:32.436Z,20.70
2019-02-07T13:34:18.509Z,25.53
2019-02-07T13:37:09.703Z,21.43
2019-02-07T13:40:04.475Z,19.53
2019-02-07T13:42:55.789Z,23.60
2019-02-07T13:45:59.760Z,21.70
2019-02-07T13:48:38.515Z,20.47
2019-02-07T13:51:36.241Z,19.27
2019-02-07T13:54:43.870Z,20.17
2019-02-07T13:57:56.695Z,21.00
2019-02-07T14:00:43.545Z,19.90
2019-02-07T14:03:31.864Z,20.80
2019-02-07T14:06:19.381Z,25.97
2019-02-07T14:09:07.637Z,21.70
2019-02-07T14:11:44.614Z,22.57
2019-02-07T14:14:37.252Z,22.57
2019-02-07T14:17:43.931Z,22.10
2019-02-07T14:20:32.279Z,20.60
2019-02-07T14:23:23.499Z,20.03
2019-02-07T14:26:11.748Z,21.23
2019-02-07T14:28:59.953Z,20.80
2019-02-07T14:31:47.344Z,21.40
2019-02-07T14:34:34.169Z,22.80
2019-02-07T14:37:21.392Z,25.07
2019-02-07T14:40:21.870Z,22.20
2019-02-07T14:43:12.853Z,22.80
2019-02-07T14:45:54.386Z,23.83
2019-02-07T14:48:24.767Z,23.40
2019-02-07T14:50:55.567Z,25.77
2019-02-07T14:53:25.044Z,25.97
2019-02-07T14:55:54.283Z,25.77
2019-02-07T14:58:23.490Z,25.07
2019-02-07T15:00:52.808Z,24.73
2019-02-07T15:03:22.000Z,24.07
2019-02-07T15:05:51.349Z,25.23
2019-02-07T15:08:20.777Z,23.83
2019-02-07T15:10:49.965Z,25.27
2019-02-07T15:13:19.188Z,25.43
2019-02-07T15:15:48.557Z,25.50
2019-02-07T15:18:17.931Z,26.03
2019-02-07T15:20:47.215Z,25.07
2019-02-07T15:23:16.713Z,25.17
2019-02-07T15:25:45.910Z,25.53
2019-02-07T15:28:15.201Z,24.90
2019-02-07T15:30:44.386Z,26.60
2019-02-07T15:33:13.654Z,24.60
2019-02-07T15:35:45.854Z,24.80
2019-02-07T15:38:34.215Z,24.17
2019-02-07T15:41:03.519Z,24.57
2019-02-07T15:43:32.941Z,24.07
2019-02-07T15:46:02.488Z,24.63
2019-02-07T15:48:31.958Z,23.80
2019-02-07T15:51:01.339Z,23.57
2019-02-07T15:53:30.712Z,24.57
2019-02-07T15:55:59.979Z,23.80
2019-02-07T15:58:45.056Z,24.10
2019-02-07T16:01:20.633Z,24.20
2019-02-07T16:04:07.911Z,24.67
2019-02-07T16:06:37.311Z,24.27
2019-02-07T16:09:08.658Z,25.00
2019-02-07T16:11:38.043Z,24.80
2019-02-07T16:14:07.773Z,25.77
2019-02-07T16:16:37.314Z,27.20
2019-02-07T16:19:06.833Z,25.20
2019-02-07T16:21:36.554Z,27.80
2019-02-07T16:24:06.785Z,29.83
2019-02-07T16:26:36.184Z,28.47
2019-02-07T16:29:05.933Z,29.07
2019-02-07T16:31:35.855Z,26.83
2019-02-07T16:34:05.257Z,27.57
2019-02-07T16:36:34.877Z,27.33
2019-02-07T16:39:07.017Z,26.63
2019-02-07T16:41:36.873Z,26.57
2019-02-07T16:44:06.617Z,25.73
2019-02-07T16:46:35.967Z,27.37
2019-02-07T16:49:05.716Z,25.67
2019-02-07T16:51:35.111Z,28.33
2019-02-07T16:54:04.658Z,27.97
2019-02-07T16:56:34.392Z,26.33
2019-02-07T16:59:03.800Z,26.47
2019-02-07T17:01:33.201Z,26.33
2019-02-07T17:04:02.615Z,25.87
2019-02-07T17:06:32.085Z,26.87
2019-02-07T17:09:01.945Z,28.57
2019-02-07T17:11:32.438Z,28.50
2019-02-07T17:14:01.800Z,27.97
2019-02-07T17:16:33.753Z,25.50
2019-02-07T17:19:03.850Z,26.50
2019-02-07T17:21:33.274Z,36.67
2019-02-07T17:24:03.024Z,27.20
2019-02-07T17:26:38.081Z,27.40
2019-02-07T17:29:07.420Z,26.63
2019-02-07T17:31:44.479Z,26.13
2019-02-07T17:34:13.914Z,27.97
2019-02-07T17:36:43.321Z,28.37
2019-02-07T17:39:12.762Z,28.83
2019-02-07T17:41:42.570Z,31.60
2019-02-07T17:44:12.058Z,29.50
2019-02-07T17:46:42.801Z,26.43
2019-02-07T17:49:12.321Z,26.30
2019-02-07T17:51:41.644Z,27.40
2019-02-07T17:54:18.560Z,27.67
2019-02-07T17:56:41.998Z,26.67
2019-02-07T17:59:11.468Z,27.10
2019-02-07T18:01:41.119Z,27.10
2019-02-07T18:04:12.132Z,25.87
2019-02-07T18:06:41.620Z,26.27
2019-02-07T18:09:11.108Z,25.90
2019-02-07T18:11:42.874Z,26.67
2019-02-07T18:14:12.363Z,27.33
2019-02-07T18:16:42.302Z,28.23
2019-02-07T18:19:12.156Z,27.03
2019-02-07T18:21:41.560Z,29.37
2019-02-07T18:24:12.181Z,26.43
2019-02-07T18:26:41.667Z,27.03
2019-02-07T18:29:12.092Z,25.83
2019-02-07T18:31:41.933Z,25.80
2019-02-07T18:34:11.402Z,27.57
2019-02-07T18:36:41.366Z,27.17
2019-02-07T18:39:11.278Z,27.73
2019-02-07T18:41:40.750Z,26.97
2019-02-07T18:44:11.478Z,30.33
2019-02-07T18:46:40.919Z,26.40
2019-02-07T18:49:10.437Z,27.43
2019-02-07T18:51:45.766Z,26.87
2019-02-07T18:54:11.369Z,27.50
2019-02-07T18:56:40.708Z,26.70
2019-02-07T18:59:10.427Z,26.97
2019-02-07T19:01:39.970Z,26.23
2019-02-07T19:04:09.384Z,28.13
2019-02-07T19:06:38.883Z,27.97
2019-02-07T19:09:09.540Z,30.23
2019-02-07T19:11:40.296Z,26.17
2019-02-07T19:14:10.400Z,26.20
2019-02-07T19:16:39.969Z,27.03
2019-02-07T19:19:09.313Z,26.60
2019-02-07T19:21:57.837Z,26.87
2019-02-07T19:24:27.326Z,28.73
2019-02-07T19:26:57.570Z,29.10
2019-02-07T19:29:27.110Z,27.40
2019-02-07T19:31:59.628Z,28.37
2019-02-07T19:34:30.834Z,29.80
2019-02-07T19:37:01.026Z,28.33
2019-02-07T19:39:30.899Z,28.80
2019-02-07T19:42:03.826Z,27.27
2019-02-07T19:44:33.981Z,26.73
2019-02-07T19:47:06.550Z,26.17
2019-02-07T19:49:36.683Z,27.03
2019-02-07T19:52:08.114Z,29.53
2019-02-07T19:54:38.058Z,30.20
2019-02-07T19:57:08.710Z,28.90
2019-02-07T19:59:38.707Z,29.70
2019-02-07T20:02:10.429Z,28.33
2019-02-07T20:04:40.023Z,28.17
2019-02-07T20:07:10.689Z,27.83
2019-02-07T20:09:40.357Z,26.77
2019-02-07T20:12:10.011Z,27.27
2019-02-07T20:14:39.447Z,28.23
2019-02-07T20:17:09.240Z,28.87
2019-02-07T20:19:39.960Z,28.30
2019-02-07T20:22:19.906Z,27.60
2019-02-07T20:24:46.030Z,27.27
2019-02-07T20:27:13.055Z,27.10
2019-02-07T20:29:42.548Z,26.83
2019-02-07T20:32:12.123Z,27.83
2019-02-07T20:34:41.961Z,27.23
2019-02-07T20:37:11.566Z,29.37
2019-02-07T20:39:41.281Z,29.53
2019-02-07T20:42:12.126Z,29.07
2019-02-07T20:44:41.562Z,31.63
2019-02-07T20:47:11.117Z,29.07
2019-02-07T20:49:42.193Z,27.53
2019-02-07T20:52:11.674Z,28.50
2019-02-07T20:54:41.335Z,29.97
2019-02-07T20:57:10.770Z,31.33
2019-02-07T20:59:40.601Z,29.87
2019-02-07T21:02:10.050Z,29.47
2019-02-07T21:04:47.577Z,28.53
2019-02-07T21:07:36.166Z,29.57
2019-02-07T21:10:06.889Z,31.10
2019-02-07T21:12:36.352Z,30.47
2019-02-07T21:15:08.225Z,30.57
2019-02-07T21:17:37.741Z,31.07
2019-02-07T21:20:09.114Z,30.10
2019-02-07T21:22:39.282Z,31.60
2019-02-07T21:25:12.766Z,31.00
2019-02-07T21:27:42.565Z,32.13
2019-02-07T21:30:15.699Z,32.07
2019-02-07T21:32:45.301Z,33.57
2019-02-07T21:35:16.591Z,33.20
2019-02-07T21:37:46.002Z,32.47
2019-02-07T21:40:18.571Z,33.17
2019-02-07T21:42:47.919Z,33.73
2019-02-07T21:45:18.275Z,33.20
2019-02-07T21:47:48.414Z,36.33
2019-02-07T21:50:20.034Z,35.47
2019-02-07T21:52:49.403Z,34.40
2019-02-07T21:55:20.423Z,31.73
2019-02-07T21:57:49.773Z,33.53
2019-02-07T22:00:38.634Z,35.27
2019-02-07T22:03:10.827Z,33.73
2019-02-07T22:05:40.483Z,34.33
2019-02-07T22:08:10.126Z,35.80
2019-02-07T22:10:39.471Z,34.67
2019-02-07T22:13:09.200Z,36.60
2019-02-07T22:15:38.442Z,38.07
2019-02-07T22:18:26.823Z,92.17
2019-02-07T22:20:56.194Z,49.03
2019-02-07T22:23:25.450Z,53.90
2019-02-07T22:25:55.068Z,39.63
2019-02-07T22:28:24.380Z,35.80
2019-02-07T22:30:53.648Z,33.40
2019-02-07T22:33:23.066Z,32.50
2019-02-07T22:35:52.320Z,32.37
2019-02-07T22:38:21.605Z,33.07
2019-02-07T22:40:51.178Z,34.53
2019-02-07T22:43:20.400Z,34.60
2019-02-07T22:45:49.660Z,33.97
2019-02-07T22:48:18.890Z,34.43
2019-02-07T22:50:48.140Z,32.83
2019-02-07T22:53:17.427Z,33.73
2019-02-07T22:55:47.174Z,33.23
2019-02-07T22:58:16.372Z,34.50
2019-02-07T23:01:14.208Z,33.13
2019-02-07T23:03:48.792Z,32.47
2019-02-07T23:06:18.057Z,31.93
2019-02-07T23:08:47.496Z,32.07
2019-02-07T23:11:16.984Z,34.30
2019-02-07T23:13:46.172Z,33.67
2019-02-07T23:16:15.989Z,33.87
2019-02-07T23:18:45.948Z,34.43
2019-02-07T23:21:15.352Z,34.57
2019-02-07T23:23:44.555Z,34.80
2019-02-07T23:26:13.822Z,33.77
2019-02-07T23:28:43.013Z,33.80
2019-02-07T23:31:12.294Z,33.97
2019-02-07T23:33:42.100Z,34.47
2019-02-07T23:36:11.425Z,33.60
2019-02-07T23:38:40.621Z,32.70
2019-02-07T23:41:10.661Z,32.20
2019-02-07T23:43:46.012Z,32.13
2019-02-07T23:46:11.720Z,33.23
2019-02-07T23:48:40.996Z,32.90
2019-02-07T23:51:10.176Z,32.70
2019-02-07T23:53:39.444Z,32.30
2019-02-07T23:56:09.071Z,33.20
2019-02-07T23:58:38.409Z,34.10
